LYSP weather

Rudine airfield
Smederevska palanka, Zlatibor, Serbia

Public forecast

Using degrees Celsius for public forecast. Weather courtesy of forecast.io.

Closest aviation weather report (METAR) to Rudine airfield

Closest report is Morava Airport, 35.8 nm (66.3 km) SSW. Retrieved 2019/12/07 11:30 UTC (0 seconds ago):

LYKV 071130Z VRB02KT 6000 FEW047 08/06 Q1018 NOSIG

Closest aviation forecast (TAF) to Rudine airfield

Closest forecast is Morava Airport, 35.8 nm (66.3 km) SSW. Retrieved 2019/12/07 06:00 UTC (5 hours ago):

TAF LYKV 070500Z 0706/0806 VRB02KT 6000 SCT040 TX11/0712Z TN00/0806Z TEMPO 0706/0708 3000 BR TEMPO 0721/0801 3000 -RA BR BKN015 BECMG 0802/0804 0600 FG